Terminal Aerodrome Forecast
Issued by NWS Cleveland, OH

Home | Current Version | Previous Version | Text Only | Print | Product List | Glossary Off
Versions: 1 2 3 4 5 6 7 8 9 10 11 12 13 14 15 16 17 18 19

000
FTUS41 KCLE 030310 AAB
TAFYNG
TAF AMD
KYNG 030310Z 0303/0324 35006KT P6SM SCT012 BKN120
     FM030800 02003KT 4SM BR BKN012
     FM031500 34004KT P6SM SCT012 BKN040=

USA.gov is the U.S. government's official web portal to all federal, state and local government web resources and services.